AEE178 LSZH-LGAV
Flight info
| Callsign | AEE178 |
|---|---|
| Flight time | N/A |
| Altitude | 37000 |
| Route | DEGES Y170 ARGAX DCT RESIA DCT LABIN DCT ELGUS DCT AIOSA DCT XAPAT DCT NOSTO UN7 NEMES |
| Aircraft | A320/M-SDE3FGHIRWY/LB1 |
Departure
| Time | 2026-05-05 05:36 |
|---|---|
| Airport | Zürich Airport (LSZH) |
Arrival
| Time | N/A |
|---|---|
| Airport | Athens Eleftherios Venizelos International Airport (LGAV) |
| Time | Latitude | Longitude | Altitude | Speed | Heading |
|---|---|---|---|---|---|
| 2026-05-05 05:36 | 47.39127 | 8.39096 | 7540 ft | 276 kts | 151° |
| 2026-05-05 05:36 | 47.37750 | 8.41038 | 8359 ft | 281 kts | 119° |
| 2026-05-05 05:36 | 47.37300 | 8.43839 | 9160 ft | 288 kts | 87° |
| 2026-05-05 05:36 | 47.37754 | 8.46737 | 9956 ft | 294 kts | 73° |
| 2026-05-05 05:37 | 47.38451 | 8.49665 | 10349 ft | 314 kts | 71° |
| 2026-05-05 05:37 | 47.39273 | 8.52776 | 10566 ft | 336 kts | 70° |
| 2026-05-05 05:37 | 47.40158 | 8.56053 | 11045 ft | 347 kts | 70° |
| 2026-05-05 05:37 | 47.41046 | 8.59393 | 11740 ft | 352 kts | 70° |
| 2026-05-05 05:38 | 47.41928 | 8.62793 | 12438 ft | 356 kts | 71° |
| 2026-05-05 05:38 | 47.42795 | 8.66237 | 13127 ft | 360 kts | 72° |
| 2026-05-05 05:38 | 47.43357 | 8.69834 | 13799 ft | 361 kts | 89° |
| 2026-05-05 05:38 | 47.43132 | 8.73459 | 14391 ft | 360 kts | 108° |
| 2026-05-05 05:39 | 47.42094 | 8.76837 | 14990 ft | 358 kts | 127° |
| 2026-05-05 05:39 | 47.40429 | 8.79570 | 15564 ft | 359 kts | 138° |
| 2026-05-05 05:39 | 47.38653 | 8.82105 | 16184 ft | 362 kts | 138° |
| 2026-05-05 05:39 | 47.36831 | 8.84694 | 16812 ft | 365 kts | 138° |
| 2026-05-05 05:40 | 47.34997 | 8.87301 | 17430 ft | 368 kts | 138° |
| 2026-05-05 05:40 | 47.33147 | 8.89939 | 18074 ft | 371 kts | 138° |
| 2026-05-05 05:40 | 47.31282 | 8.92600 | 18700 ft | 375 kts | 138° |
| 2026-05-05 05:40 | 47.29401 | 8.95278 | 19288 ft | 378 kts | 139° |
| 2026-05-05 05:41 | 47.27499 | 8.97982 | 19864 ft | 382 kts | 139° |
| 2026-05-05 05:41 | 47.25578 | 9.00712 | 20436 ft | 385 kts | 139° |
| 2026-05-05 05:41 | 47.23645 | 9.03458 | 20993 ft | 389 kts | 139° |
| 2026-05-05 05:41 | 47.21686 | 9.06240 | 21521 ft | 393 kts | 139° |
| 2026-05-05 05:42 | 47.19712 | 9.09037 | 22046 ft | 396 kts | 139° |
| 2026-05-05 05:42 | 47.17724 | 9.11851 | 22517 ft | 399 kts | 139° |
| 2026-05-05 05:42 | 47.15717 | 9.14693 | 23017 ft | 403 kts | 139° |
| 2026-05-05 05:42 | 47.13689 | 9.17563 | 23507 ft | 406 kts | 139° |
| 2026-05-05 05:43 | 47.11647 | 9.20448 | 23927 ft | 410 kts | 139° |
| 2026-05-05 05:43 | 47.09585 | 9.23355 | 24362 ft | 411 kts | 140° |
| 2026-05-05 05:43 | 47.07515 | 9.26262 | 24752 ft | 413 kts | 140° |
| 2026-05-05 05:43 | 47.05430 | 9.29184 | 25123 ft | 416 kts | 140° |
| 2026-05-05 05:44 | 47.03320 | 9.32104 | 25496 ft | 418 kts | 141° |
| 2026-05-05 05:44 | 47.01175 | 9.34979 | 25872 ft | 420 kts | 141° |
| 2026-05-05 05:44 | 46.98992 | 9.37847 | 26262 ft | 422 kts | 142° |
| 2026-05-05 05:44 | 46.96799 | 9.40700 | 26672 ft | 423 kts | 142° |
| 2026-05-05 05:45 | 46.94587 | 9.43572 | 27052 ft | 427 kts | 142° |
| 2026-05-05 05:45 | 46.92361 | 9.46468 | 27429 ft | 429 kts | 142° |
| 2026-05-05 05:45 | 46.90128 | 9.49382 | 27794 ft | 432 kts | 142° |
| 2026-05-05 05:45 | 46.87881 | 9.52323 | 28184 ft | 435 kts | 142° |
| 2026-05-05 05:46 | 46.85626 | 9.55281 | 28569 ft | 436 kts | 142° |
| 2026-05-05 05:46 | 46.83363 | 9.58253 | 28954 ft | 438 kts | 142° |
| 2026-05-05 05:46 | 46.81095 | 9.61232 | 29306 ft | 440 kts | 142° |
| 2026-05-05 05:46 | 46.78805 | 9.64234 | 29675 ft | 442 kts | 142° |
| 2026-05-05 05:47 | 46.76513 | 9.67228 | 30009 ft | 444 kts | 142° |
| 2026-05-05 05:47 | 46.74207 | 9.70234 | 30337 ft | 445 kts | 142° |
| 2026-05-05 05:47 | 46.71896 | 9.73239 | 30725 ft | 444 kts | 142° |
| 2026-05-05 05:47 | 46.69624 | 9.76186 | 31185 ft | 442 kts | 143° |
| 2026-05-05 05:48 | 46.67335 | 9.79157 | 31582 ft | 441 kts | 143° |
| 2026-05-05 05:48 | 46.65039 | 9.82138 | 31904 ft | 443 kts | 143° |
| 2026-05-05 05:48 | 46.62737 | 9.85120 | 32295 ft | 443 kts | 143° |
| 2026-05-05 05:48 | 46.60436 | 9.88095 | 32723 ft | 442 kts | 143° |
| 2026-05-05 05:49 | 46.58111 | 9.91100 | 33149 ft | 442 kts | 143° |
| 2026-05-05 05:49 | 46.55814 | 9.94064 | 33577 ft | 441 kts | 143° |
| 2026-05-05 05:49 | 46.53526 | 9.97014 | 34013 ft | 440 kts | 143° |
| 2026-05-05 05:49 | 46.51267 | 9.99923 | 34362 ft | 439 kts | 143° |
| 2026-05-05 05:50 | 46.48973 | 10.02925 | 34682 ft | 439 kts | 140° |
| 2026-05-05 05:50 | 46.46951 | 10.06279 | 34977 ft | 444 kts | 130° |
| 2026-05-05 05:50 | 46.45206 | 10.09988 | 35273 ft | 446 kts | 128° |
| 2026-05-05 05:50 | 46.43498 | 10.13678 | 35550 ft | 446 kts | 128° |
| 2026-05-05 05:51 | 46.41761 | 10.17410 | 35859 ft | 446 kts | 128° |
| 2026-05-05 05:51 | 46.40023 | 10.21130 | 36170 ft | 446 kts | 128° |
| 2026-05-05 05:51 | 46.38285 | 10.24852 | 36476 ft | 446 kts | 128° |
| 2026-05-05 05:51 | 46.36548 | 10.28562 | 36794 ft | 445 kts | 128° |
| 2026-05-05 05:52 | 46.34808 | 10.32268 | 37004 ft | 446 kts | 128° |
| 2026-05-05 05:52 | 46.33063 | 10.35987 | 37036 ft | 446 kts | 128° |
| 2026-05-05 05:52 | 46.29583 | 10.43417 | 37037 ft | 446 kts | 128° |
| 2026-05-05 05:53 | 46.26094 | 10.50840 | 37030 ft | 447 kts | 128° |
| 2026-05-05 05:53 | 46.22587 | 10.58270 | 37048 ft | 447 kts | 128° |
| 2026-05-05 05:54 | 46.19079 | 10.65681 | 37050 ft | 447 kts | 128° |
| 2026-05-05 05:54 | 46.15570 | 10.73077 | 37072 ft | 447 kts | 128° |
| 2026-05-05 05:55 | 46.12048 | 10.80477 | 37045 ft | 447 kts | 128° |
| 2026-05-05 05:55 | 46.08524 | 10.87875 | 37057 ft | 448 kts | 128° |
| 2026-05-05 05:56 | 46.04984 | 10.95272 | 37063 ft | 449 kts | 128° |
| 2026-05-05 05:56 | 46.01436 | 11.02664 | 37057 ft | 449 kts | 128° |
| 2026-05-05 05:57 | 45.97886 | 11.10045 | 37058 ft | 449 kts | 128° |
| 2026-05-05 05:57 | 45.94329 | 11.17425 | 37051 ft | 449 kts | 128° |
| 2026-05-05 05:58 | 45.90764 | 11.24807 | 37042 ft | 450 kts | 128° |
| 2026-05-05 05:58 | 45.87191 | 11.32178 | 37051 ft | 450 kts | 128° |
| 2026-05-05 05:59 | 45.83605 | 11.39552 | 37045 ft | 450 kts | 128° |
| 2026-05-05 05:59 | 45.80014 | 11.46906 | 37044 ft | 450 kts | 128° |
| 2026-05-05 06:00 | 45.76420 | 11.54262 | 37049 ft | 451 kts | 128° |
| 2026-05-05 06:00 | 45.72818 | 11.61619 | 37044 ft | 451 kts | 128° |
| 2026-05-05 06:01 | 45.69239 | 11.68914 | 37037 ft | 451 kts | 128° |
| 2026-05-05 06:01 | 45.65612 | 11.76287 | 37032 ft | 451 kts | 128° |
| 2026-05-05 06:02 | 45.62025 | 11.83563 | 37005 ft | 451 kts | 128° |
| 2026-05-05 06:02 | 45.58384 | 11.90931 | 37008 ft | 451 kts | 128° |
| 2026-05-05 06:03 | 45.54783 | 11.98188 | 37009 ft | 451 kts | 128° |
| 2026-05-05 06:03 | 45.51148 | 12.05498 | 37005 ft | 452 kts | 129° |
| 2026-05-05 06:04 | 45.47505 | 12.12797 | 37011 ft | 452 kts | 129° |
| 2026-05-05 06:04 | 45.43855 | 12.20099 | 37003 ft | 452 kts | 129° |
| 2026-05-05 06:05 | 45.40205 | 12.27398 | 37013 ft | 453 kts | 129° |
| 2026-05-05 06:05 | 45.36539 | 12.34688 | 37021 ft | 453 kts | 129° |
| 2026-05-05 06:06 | 45.32870 | 12.41960 | 37017 ft | 452 kts | 129° |
| 2026-05-05 06:06 | 45.29195 | 12.49218 | 37005 ft | 452 kts | 129° |
| 2026-05-05 06:07 | 45.25525 | 12.56472 | 36999 ft | 453 kts | 129° |
| 2026-05-05 06:07 | 45.21842 | 12.63744 | 37006 ft | 454 kts | 129° |
| 2026-05-05 06:08 | 45.18146 | 12.71014 | 37010 ft | 454 kts | 129° |
| 2026-05-05 06:08 | 45.15072 | 12.77048 | 37019 ft | 455 kts | 129° |
| 2026-05-05 06:09 | 45.11359 | 12.84310 | 37039 ft | 455 kts | 129° |
| 2026-05-05 06:09 | 45.07639 | 12.91552 | 37030 ft | 455 kts | 129° |
| 2026-05-05 06:10 | 45.03912 | 12.98805 | 37041 ft | 456 kts | 129° |
| 2026-05-05 06:10 | 45.00182 | 13.06050 | 37035 ft | 456 kts | 129° |
| 2026-05-05 06:11 | 44.96014 | 13.12621 | 37021 ft | 451 kts | 140° |
| 2026-05-05 06:11 | 44.91463 | 13.18736 | 37013 ft | 452 kts | 140° |
| 2026-05-05 06:12 | 44.86914 | 13.24854 | 37023 ft | 453 kts | 140° |
| 2026-05-05 06:12 | 44.82349 | 13.30981 | 37030 ft | 453 kts | 140° |
| 2026-05-05 06:13 | 44.77775 | 13.37103 | 37031 ft | 454 kts | 140° |
| 2026-05-05 06:13 | 44.73201 | 13.43214 | 37022 ft | 454 kts | 140° |
| 2026-05-05 06:14 | 44.68607 | 13.49338 | 37039 ft | 455 kts | 140° |
| 2026-05-05 06:14 | 44.64008 | 13.55457 | 37046 ft | 455 kts | 140° |
| 2026-05-05 06:15 | 44.59398 | 13.61559 | 37054 ft | 456 kts | 140° |
| 2026-05-05 06:15 | 44.54788 | 13.67650 | 37040 ft | 456 kts | 140° |
| 2026-05-05 06:16 | 44.50173 | 13.73756 | 37046 ft | 456 kts | 140° |
| 2026-05-05 06:16 | 44.45551 | 13.79854 | 37051 ft | 456 kts | 140° |
| 2026-05-05 06:17 | 44.40925 | 13.85930 | 37055 ft | 457 kts | 140° |
| 2026-05-05 06:17 | 44.36287 | 13.92002 | 37064 ft | 457 kts | 140° |
| 2026-05-05 06:18 | 44.31645 | 13.98067 | 37039 ft | 457 kts | 140° |
| 2026-05-05 06:18 | 44.26995 | 14.04133 | 37045 ft | 458 kts | 140° |
| 2026-05-05 06:19 | 44.22376 | 14.10167 | 37052 ft | 458 kts | 140° |
| 2026-05-05 06:19 | 44.17709 | 14.16225 | 37057 ft | 458 kts | 141° |
| 2026-05-05 06:20 | 44.13036 | 14.22271 | 37057 ft | 459 kts | 141° |
| 2026-05-05 06:20 | 44.08359 | 14.28314 | 37037 ft | 459 kts | 141° |
| 2026-05-05 06:21 | 44.03678 | 14.34355 | 37035 ft | 460 kts | 141° |
| 2026-05-05 06:21 | 43.98977 | 14.40410 | 37039 ft | 461 kts | 141° |
| 2026-05-05 06:22 | 43.94277 | 14.46460 | 37043 ft | 461 kts | 141° |
| 2026-05-05 06:22 | 43.89567 | 14.52503 | 37051 ft | 461 kts | 141° |
| 2026-05-05 06:23 | 43.84853 | 14.58522 | 37053 ft | 461 kts | 141° |
| 2026-05-05 06:23 | 43.80133 | 14.64534 | 37055 ft | 461 kts | 141° |
| 2026-05-05 06:24 | 43.75413 | 14.70546 | 37057 ft | 461 kts | 141° |
| 2026-05-05 06:24 | 43.70696 | 14.76546 | 37055 ft | 461 kts | 141° |
| 2026-05-05 06:25 | 43.65980 | 14.82543 | 37054 ft | 460 kts | 141° |
| 2026-05-05 06:25 | 43.61255 | 14.88511 | 37040 ft | 461 kts | 141° |
| 2026-05-05 06:26 | 43.56519 | 14.94479 | 37031 ft | 461 kts | 141° |
| 2026-05-05 06:26 | 43.51860 | 15.00590 | 37030 ft | 464 kts | 137° |
| 2026-05-05 06:27 | 43.45285 | 15.10434 | 37039 ft | 466 kts | 135° |
| 2026-05-05 06:28 | 43.40913 | 15.17007 | 37046 ft | 466 kts | 136° |
| 2026-05-05 06:28 | 43.36448 | 15.23503 | 37041 ft | 467 kts | 137° |
| 2026-05-05 06:29 | 43.31958 | 15.29947 | 37043 ft | 468 kts | 137° |